Time;durP1;ratioP1;P1;durP2;ratioP2;P2;SDS_P1;SDS_P2;PMS_P1;PMS_P2;Temp;Humidity;BMP_temperature;BMP_pressure;BME280_temperature;BME280_humidity;BME280_pressure;Samples;Min_cycle;Max_cycle;Signal;HPM_P1;HPM_P2
2022/08/12 00:43:26;;;;;;;2.63;1.73;;;18.50;99.90;;;;;;5052637;28;20461;-69
2022/08/12 00:48:37;;;;;;;1.60;1.13;;;18.50;99.90;;;;;;5052545;28;20091;-69
2022/08/12 00:51:04;;;;;;;2.67;1.88;;;18.50;99.90;;;;;;5052545;28;20036;-70
2022/08/12 00:53:30;;;;;;;3.20;1.70;;;18.40;99.90;;;;;;5034677;28;20079;-69
2022/08/12 00:55:58;;;;;;;2.05;1.52;;;18.40;99.90;;;;;;5052142;28;20135;-69
2022/08/12 00:58:29;;;;;;;2.50;1.45;;;18.40;99.90;;;;;;5052145;28;20048;-69
2022/08/12 01:01:02;;;;;;;1.98;1.50;;;18.40;99.90;;;;;;5052397;28;20052;-68
2022/08/12 01:11:27;;;;;;;1.70;1.38;;;18.40;99.90;;;;;;5052441;28;20060;-68
2022/08/12 01:11:50;;;;;;;2.60;1.60;;;18.30;99.90;;;;;;5034205;28;20095;-70
2022/08/12 01:14:18;;;;;;;7.10;1.75;;;18.30;99.90;;;;;;5052053;28;20048;-69
2022/08/12 01:16:47;;;;;;;2.25;1.30;;;18.20;99.90;;;;;;5054350;28;20048;-69
2022/08/12 01:19:13;;;;;;;4.07;1.75;;;18.20;99.90;;;;;;5055859;28;20037;-70
2022/08/12 01:21:55;;;;;;;3.75;2.20;;;18.20;99.90;;;;;;5055755;28;20064;-69
2022/08/12 01:24:52;;;;;;;3.97;1.95;;;18.10;99.90;;;;;;5055379;28;20045;-68
2022/08/12 01:27:20;;;;;;;4.28;2.10;;;18.10;99.90;;;;;;5055722;28;20148;-69
2022/08/12 01:29:47;;;;;;;2.80;1.80;;;18.10;99.90;;;;;;5055621;28;20388;-68
2022/08/12 01:32:14;;;;;;;5.28;2.10;;;18.10;99.90;;;;;;5055331;28;20041;-68
2022/08/12 01:35:02;;;;;;;2.50;1.73;;;18.00;99.90;;;;;;5055324;28;20037;-68
2022/08/12 01:37:29;;;;;;;2.75;1.90;;;18.00;99.90;;;;;;5055589;28;20049;-68
2022/08/12 01:39:59;;;;;;;3.42;2.08;;;17.90;99.90;;;;;;5055203;28;20049;-68
2022/08/12 01:42:27;;;;;;;6.20;2.10;;;18.00;99.90;;;;;;5055528;28;20052;-68
2022/08/12 01:44:54;;;;;;;5.43;2.33;;;17.90;99.90;;;;;;5055306;28;20451;-68
2022/08/12 01:47:32;;;;;;;3.10;2.00;;;17.90;99.90;;;;;;5055122;28;20124;-68
2022/08/12 01:50:23;;;;;;;4.88;2.10;;;17.80;99.90;;;;;;5055323;28;20059;-68
2022/08/12 01:52:59;;;;;;;3.78;2.10;;;17.80;99.90;;;;;;5055017;28;20484;-69
2022/08/12 01:55:33;;;;;;;4.38;2.45;;;17.80;99.90;;;;;;5055218;28;20044;-71
2022/08/12 01:58:25;;;;;;;2.85;1.90;;;17.80;99.90;;;;;;5055205;28;20445;-69
2022/08/12 02:01:05;;;;;;;3.65;2.40;;;17.80;99.90;;;;;;5050716;28;20131;-69
2022/08/12 02:12:57;;;;;;;4.40;2.22;;;17.70;99.90;;;;;;5054490;28;20047;-69
2022/08/12 02:15:46;;;;;;;3.47;2.25;;;17.70;99.90;;;;;;5054848;28;20116;-69
2022/08/12 02:18:19;;;;;;;5.45;2.80;;;17.60;99.90;;;;;;5054736;28;20033;-69
2022/08/12 02:20:52;;;;;;;3.70;2.55;;;17.70;99.90;;;;;;5054695;28;20381;-68
2022/08/12 02:23:22;;;;;;;4.35;2.90;;;17.60;99.90;;;;;;5054165;28;20061;-69
2022/08/12 02:25:53;;;;;;;5.38;2.42;;;17.60;99.90;;;;;;5036742;28;20048;-69
2022/08/12 02:28:19;;;;;;;3.85;2.10;;;17.50;99.90;;;;;;5053426;28;20037;-68
2022/08/12 02:30:45;;;;;;;5.78;2.92;;;17.40;99.90;;;;;;5054502;28;20400;-68
2022/08/12 02:33:11;;;;;;;7.72;2.65;;;17.40;99.90;;;;;;5054440;28;20040;-69
2022/08/12 02:35:38;;;;;;;5.05;3.05;;;17.30;99.90;;;;;;5054455;28;20049;-69
2022/08/12 02:38:07;;;;;;;3.92;2.60;;;17.80;99.90;;;;;;5036466;28;20056;-69
2022/08/12 02:40:37;;;;;;;8.57;2.65;;;17.30;99.90;;;;;;5054378;28;20033;-69
2022/08/12 02:43:33;;;;;;;4.85;2.78;;;17.30;99.90;;;;;;5054284;28;20087;-69
2022/08/12 02:46:12;;;;;;;4.20;2.80;;;17.30;99.90;;;;;;5054166;28;20080;-70
2022/08/12 02:48:51;;;;;;;3.08;2.28;;;17.30;99.90;;;;;;5053861;28;20080;-68
2022/08/12 02:51:32;;;;;;;5.68;2.38;;;17.30;99.90;;;;;;5054195;28;20052;-69
2022/08/12 02:54:02;;;;;;;5.88;2.50;;;17.20;99.90;;;;;;5054030;28;20070;-69
2022/08/12 02:56:29;;;;;;;3.55;2.05;;;17.20;99.90;;;;;;5054006;28;20183;-69
2022/08/12 02:58:56;;;;;;;3.42;2.50;;;17.20;99.90;;;;;;5053709;28;20049;-68
2022/08/12 03:01:34;;;;;;;3.53;2.63;;;17.20;99.90;;;;;;5053988;28;20087;-68
2022/08/12 03:04:04;;;;;;;3.63;2.33;;;17.20;99.90;;;;;;5053855;28;20037;-68
2022/08/12 03:07:00;;;;;;;7.20;2.45;;;17.10;99.90;;;;;;5053707;28;20451;-68
2022/08/12 03:09:31;;;;;;;4.38;2.33;;;17.30;99.90;;;;;;5053778;28;20549;-68
2022/08/12 03:12:06;;;;;;;3.67;2.42;;;17.10;99.90;;;;;;5053481;28;20070;-68
2022/08/12 03:14:34;;;;;;;4.47;2.58;;;17.10;99.90;;;;;;5053408;28;20041;-69
2022/08/12 03:17:12;;;;;;;4.18;2.95;;;17.00;99.90;;;;;;5053360;28;20044;-68
2022/08/12 03:19:38;;;;;;;5.88;3.05;;;17.00;99.90;;;;;;5053565;28;20110;-68
2022/08/12 03:22:13;;;;;;;3.60;2.55;;;16.90;99.90;;;;;;5053219;28;20120;-68
2022/08/12 03:24:44;;;;;;;6.90;2.88;;;17.00;99.90;;;;;;5053525;28;20484;-68
2022/08/12 03:27:14;;;;;;;4.10;2.55;;;16.90;99.90;;;;;;5053412;28;20041;-69
2022/08/12 03:29:43;;;;;;;6.13;2.90;;;16.90;99.90;;;;;;5053442;28;20419;-68
2022/08/12 03:32:09;;;;;;;5.65;3.15;;;16.90;99.90;;;;;;5053200;28;20051;-69
2022/08/12 03:34:36;;;;;;;4.05;2.60;;;16.80;99.90;;;;;;5053176;28;20032;-68
2022/08/12 03:37:04;;;;;;;6.25;3.00;;;17.10;99.90;;;;;;5053268;28;20037;-68
2022/08/12 03:42:34;;;;;;;3.50;2.70;;;16.70;99.90;;;;;;5053243;28;20037;-68
2022/08/12 04:01:57;;;;;;;5.00;3.22;;;16.60;99.90;;;;;;5053029;28;20144;-68
2022/08/12 04:04:34;;;;;;;4.55;2.92;;;16.50;99.90;;;;;;5052971;28;20076;-68
2022/08/12 04:07:06;;;;;;;6.65;2.60;;;16.50;99.90;;;;;;5052875;28;20365;-68
2022/08/12 04:09:33;;;;;;;4.63;2.83;;;16.50;99.90;;;;;;5034846;28;20045;-68
2022/08/12 04:14:43;;;;;;;4.13;2.65;;;16.50;99.90;;;;;;5052797;28;20095;-69
2022/08/12 04:17:10;;;;;;;3.95;2.42;;;16.50;99.90;;;;;;5052571;28;20080;-68
2022/08/12 04:19:36;;;;;;;4.05;2.40;;;16.50;99.90;;;;;;5052834;28;20041;-68
2022/08/12 04:22:02;;;;;;;5.85;3.28;;;16.50;99.90;;;;;;5052812;28;20129;-68
2022/08/12 04:24:33;;;;;;;3.58;2.38;;;16.50;99.90;;;;;;5052360;28;20060;-68
2022/08/12 04:26:59;;;;;;;4.80;2.40;;;16.50;99.90;;;;;;5052656;28;20514;-68
2022/08/12 04:29:25;;;;;;;4.40;3.00;;;16.50;99.90;;;;;;5052691;28;20072;-68
2022/08/12 04:31:54;;;;;;;8.40;2.90;;;16.50;99.90;;;;;;5052669;28;20142;-69
2022/08/12 04:34:24;;;;;;;3.40;2.38;;;16.70;99.90;;;;;;5034606;28;20076;-68
2022/08/12 04:36:52;;;;;;;4.43;2.53;;;16.50;99.90;;;;;;5034806;28;20074;-68
2022/08/12 04:39:20;;;;;;;3.58;2.53;;;16.50;99.90;;;;;;5052376;28;20125;-68
2022/08/12 04:41:48;;;;;;;6.18;2.95;;;16.50;99.90;;;;;;5052634;28;20037;-68
2022/08/12 04:44:14;;;;;;;5.15;3.25;;;16.50;99.90;;;;;;5052634;28;20400;-68
2022/08/12 04:46:41;;;;;;;4.45;2.53;;;16.60;99.90;;;;;;5052464;28;20469;-68
2022/08/12 04:49:07;;;;;;;4.32;2.70;;;16.60;99.90;;;;;;5052287;28;20404;-68
2022/08/12 04:51:34;;;;;;;4.32;2.70;;;16.60;99.90;;;;;;5054673;28;20064;-68
2022/08/12 04:54:01;;;;;;;3.80;2.78;;;16.70;99.90;;;;;;5055981;28;20037;-69
2022/08/12 04:56:28;;;;;;;3.83;2.60;;;16.60;99.90;;;;;;5056078;28;20044;-68
2022/08/12 04:58:55;;;;;;;4.90;2.65;;;16.70;99.90;;;;;;5038411;28;20060;-69
2022/08/12 05:01:21;;;;;;;3.78;2.50;;;16.70;99.90;;;;;;5055945;28;20078;-69
2022/08/12 05:03:49;;;;;;;4.18;2.63;;;16.70;99.90;;;;;;5056155;28;20132;-69
2022/08/12 05:06:14;;;;;;;5.13;3.08;;;16.80;99.90;;;;;;5055778;28;20049;-68
2022/08/12 05:08:40;;;;;;;5.63;2.75;;;16.80;99.90;;;;;;5056072;28;20044;-68
2022/08/12 05:11:06;;;;;;;4.30;2.80;;;16.80;99.90;;;;;;5038142;28;20396;-69
2022/08/12 05:13:37;;;;;;;4.45;2.65;;;16.80;99.90;;;;;;5055993;28;20511;-68
2022/08/12 05:16:05;;;;;;;4.97;3.30;;;16.80;99.90;;;;;;5055928;28;20119;-69
2022/08/12 05:18:34;;;;;;;4.78;2.65;;;16.90;99.90;;;;;;5055890;28;20408;-68
2022/08/12 05:21:00;;;;;;;6.07;2.63;;;16.90;99.90;;;;;;5055608;28;20102;-68
2022/08/12 05:23:26;;;;;;;4.05;2.78;;;16.90;99.90;;;;;;5055531;28;20049;-68
2022/08/12 05:25:55;;;;;;;4.22;2.22;;;16.90;99.90;;;;;;5055690;28;20061;-68
2022/08/12 05:28:22;;;;;;;4.03;2.38;;;17.00;99.90;;;;;;5055473;28;20043;-69
2022/08/12 05:30:48;;;;;;;4.28;3.00;;;17.00;99.90;;;;;;5055684;28;20045;-68
2022/08/12 05:33:14;;;;;;;3.95;2.60;;;17.10;99.90;;;;;;5055500;28;20377;-68
2022/08/12 05:35:42;;;;;;;3.22;2.40;;;17.10;99.90;;;;;;5055545;28;20041;-68
2022/08/12 05:40:54;;;;;;;7.35;2.95;;;17.20;99.90;;;;;;5055125;28;20051;-68
2022/08/12 05:43:21;;;;;;;5.20;3.25;;;17.30;99.90;;;;;;5055106;28;20041;-68
2022/08/12 05:45:47;;;;;;;4.45;2.75;;;17.40;99.90;;;;;;5054992;28;20041;-69
2022/08/12 05:48:13;;;;;;;4.03;2.63;;;17.50;99.90;;;;;;5037172;28;20102;-69
2022/08/12 05:50:39;;;;;;;4.30;2.72;;;17.50;99.90;;;;;;5055304;28;20037;-68
2022/08/12 05:53:06;;;;;;;4.00;2.90;;;17.50;99.90;;;;;;5055213;28;20037;-68
2022/08/12 05:55:33;;;;;;;4.43;2.58;;;17.60;99.90;;;;;;5054817;28;20052;-67
2022/08/12 05:58:01;;;;;;;5.10;2.53;;;17.70;99.90;;;;;;5055139;28;20041;-68
2022/08/12 06:00:30;;;;;;;5.38;3.25;;;17.70;99.90;;;;;;5055200;28;20531;-67
2022/08/12 06:03:01;;;;;;;5.30;2.88;;;17.80;99.90;;;;;;5036694;28;20076;-68
2022/08/12 06:05:35;;;;;;;4.43;2.80;;;17.90;99.90;;;;;;5055044;28;20730;-68
2022/08/12 06:08:05;;;;;;;3.60;2.42;;;18.00;99.90;;;;;;5054944;28;20586;-69
2022/08/12 06:10:32;;;;;;;3.47;2.55;;;18.10;99.90;;;;;;5054917;28;20111;-69
2022/08/12 06:13:03;;;;;;;4.15;2.55;;;18.20;99.90;;;;;;5054680;28;20045;-69
2022/08/12 06:15:29;;;;;;;3.70;2.65;;;18.30;99.90;;;;;;5055118;28;20049;-68
2022/08/12 06:18:04;;;;;;;5.45;3.20;;;18.40;99.90;;;;;;5054852;28;20037;-70
2022/08/12 06:20:29;;;;;;;4.72;2.30;;;18.50;99.90;;;;;;5054545;28;20129;-67
2022/08/12 06:22:55;;;;;;;3.13;2.53;;;18.60;99.90;;;;;;5054363;28;20089;-68
2022/08/12 06:25:21;;;;;;;4.57;3.20;;;18.70;99.90;;;;;;5054632;28;20457;-68
2022/08/12 06:27:48;;;;;;;3.35;2.53;;;18.80;99.90;;;;;;5054620;28;20036;-68
2022/08/12 06:30:20;;;;;;;4.65;2.22;;;18.90;99.90;;;;;;5054650;28;20403;-68
2022/08/12 06:32:50;;;;;;;5.70;2.35;;;19.00;99.90;;;;;;5054222;28;20076;-68
2022/08/12 06:35:17;;;;;;;5.15;2.15;;;19.20;99.90;;;;;;5036352;28;20041;-68
2022/08/12 06:37:46;;;;;;;3.25;2.10;;;19.40;99.90;;;;;;5054196;28;20112;-68
2022/08/12 06:40:12;;;;;;;4.78;2.75;;;19.50;99.90;;;;;;5054415;28;20045;-69
2022/08/12 06:42:50;;;;;;;4.30;2.15;;;19.60;99.90;;;;;;5054373;28;20542;-68
2022/08/12 06:45:20;;;;;;;4.95;2.45;;;19.80;99.90;;;;;;5054223;28;20036;-68
2022/08/12 06:47:47;;;;;;;4.00;2.20;;;19.90;99.90;;;;;;5054254;28;20426;-70
2022/08/12 06:50:17;;;;;;;3.22;2.30;;;20.10;99.90;;;;;;5054239;28;20310;-70
2022/08/12 06:52:43;;;;;;;3.75;2.17;;;20.20;99.90;;;;;;5054178;28;20052;-71
2022/08/12 06:55:19;;;;;;;4.35;2.60;;;20.30;99.90;;;;;;5053837;28;20070;-70
2022/08/12 06:57:56;;;;;;;2.78;2.25;;;20.40;99.90;;;;;;5053799;28;20041;-70
2022/08/12 07:00:29;;;;;;;3.85;2.35;;;20.70;99.90;;;;;;5054004;28;20115;-70
2022/08/12 07:02:56;;;;;;;3.80;2.35;;;20.70;99.90;;;;;;5053907;28;20428;-70
2022/08/12 07:05:25;;;;;;;3.10;1.95;;;20.80;99.90;;;;;;5053778;28;20075;-69
2022/08/12 07:07:54;;;;;;;3.05;1.98;;;21.00;99.90;;;;;;5035755;28;20044;-71
2022/08/12 07:10:24;;;;;;;3.40;2.30;;;21.10;99.90;;;;;;5053469;28;20098;-69
2022/08/12 07:12:53;;;;;;;3.30;2.35;;;21.20;99.90;;;;;;5053554;28;20041;-71
2022/08/12 07:15:23;;;;;;;3.35;2.10;;;21.30;99.90;;;;;;5053476;28;20032;-71
2022/08/12 07:17:50;;;;;;;5.43;2.33;;;21.50;99.90;;;;;;5053419;28;20101;-71
2022/08/12 07:20:16;;;;;;;3.22;2.28;;;21.50;99.90;;;;;;5053693;28;20345;-69
2022/08/12 07:22:42;;;;;;;3.38;1.95;;;21.70;99.90;;;;;;5053142;28;20053;-69
2022/08/12 07:27:57;;;;;;;2.53;1.60;;;21.90;99.90;;;;;;5053142;28;20127;-69
2022/08/12 07:30:23;;;;;;;;;;;21.90;99.90;;;;;;5053909;28;20163;-69
2022/08/12 07:32:50;;;;;;;2.53;1.83;;;22.10;99.90;;;;;;5053328;28;20441;-67
2022/08/12 07:35:18;;;;;;;2.63;1.55;;;22.20;99.90;;;;;;5035068;28;20044;-69
2022/08/12 07:37:44;;;;;;;3.58;1.88;;;22.40;99.90;;;;;;5053003;28;20037;-70
2022/08/12 07:40:10;;;;;;;3.20;2.00;;;22.60;99.90;;;;;;5052987;28;20037;-68
2022/08/12 07:42:40;;;;;;;3.25;2.50;;;22.60;99.90;;;;;;5052707;28;20072;-70
2022/08/12 07:45:08;;;;;;;3.90;2.53;;;22.80;99.90;;;;;;5052646;28;20036;-70
2022/08/12 07:47:34;;;;;;;3.85;2.15;;;22.90;99.90;;;;;;5052647;28;20037;-68
2022/08/12 07:50:01;;;;;;;4.03;2.70;;;22.90;99.90;;;;;;5052866;28;20041;-68
2022/08/12 07:52:27;;;;;;;3.65;2.13;;;23.00;99.90;;;;;;5052609;28;20037;-68
2022/08/12 07:54:53;;;;;;;3.63;2.50;;;23.10;99.90;;;;;;5052529;28;20041;-68
2022/08/12 07:57:19;;;;;;;4.88;2.35;;;23.20;99.90;;;;;;5052446;28;20033;-69
2022/08/12 07:59:45;;;;;;;3.20;2.20;;;23.40;99.90;;;;;;5052842;28;20139;-68
2022/08/12 08:02:11;;;;;;;3.08;2.20;;;23.50;99.90;;;;;;5052680;28;20049;-69
2022/08/12 08:04:55;;;;;;;3.08;2.05;;;23.60;99.90;;;;;;5052256;28;20396;-68
2022/08/12 08:07:22;;;;;;;4.32;2.05;;;23.70;99.90;;;;;;5052744;28;20047;-68
2022/08/12 08:09:48;;;;;;;4.10;2.08;;;23.80;99.90;;;;;;5052597;28;20072;-67
2022/08/12 08:14:59;;;;;;;2.67;1.55;;;24.00;99.90;;;;;;5052292;28;20099;-67
2022/08/12 08:17:25;;;;;;;4.07;1.73;;;24.20;99.90;;;;;;5052728;28;20126;-67
2022/08/12 08:19:51;;;;;;;3.10;1.75;;;24.20;99.90;;;;;;5052668;28;20040;-67
2022/08/12 08:22:23;;;;;;;2.70;1.80;;;24.30;99.90;;;;;;5052501;28;20415;-67
2022/08/12 08:24:55;;;;;;;3.70;2.25;;;24.40;99.90;;;;;;5053498;28;20049;-68
2022/08/12 08:27:21;;;;;;;3.75;1.70;;;24.50;99.90;;;;;;5038639;28;20059;-66
2022/08/12 08:29:47;;;;;;;2.85;1.75;;;24.70;99.90;;;;;;5056648;28;20037;-67
2022/08/12 08:32:13;;;;;;;2.47;1.63;;;24.80;99.90;;;;;;5056746;28;20033;-67
2022/08/12 08:34:39;;;;;;;2.17;1.58;;;24.90;99.90;;;;;;5038553;28;20048;-67
2022/08/12 08:37:06;;;;;;;3.63;2.05;;;25.00;99.90;;;;;;5057091;28;20212;-67
2022/08/12 08:39:33;;;;;;;2.35;1.75;;;25.10;99.90;;;;;;5056285;28;20037;-67
2022/08/12 08:44:43;;;;;;;2.60;1.38;;;25.20;99.90;;;;;;5056165;28;20103;-67
2022/08/12 08:47:10;;;;;;;2.58;1.80;;;25.30;99.90;;;;;;5056333;28;20037;-65
2022/08/12 08:49:38;;;;;;;2.65;1.65;;;25.40;99.90;;;;;;5038960;28;20398;-68
2022/08/12 08:52:06;;;;;;;2.28;1.65;;;25.50;99.90;;;;;;5056086;28;20052;-65
2022/08/12 08:54:36;;;;;;;7.65;2.08;;;25.60;99.90;;;;;;5038044;28;20053;-67
2022/08/12 08:57:04;;;;;;;2.33;1.75;;;25.80;99.90;;;;;;5038358;28;20049;-68
2022/08/12 08:59:30;;;;;;;4.05;1.90;;;25.80;99.90;;;;;;5056220;28;20048;-67
2022/08/12 09:01:56;;;;;;;3.55;1.60;;;25.90;99.90;;;;;;5038301;28;20049;-68
2022/08/12 09:04:25;;;;;;;2.83;1.75;;;26.00;99.90;;;;;;5038479;28;20037;-67
2022/08/12 09:06:53;;;;;;;3.03;1.70;;;26.10;99.90;;;;;;5055994;28;20037;-69
2022/08/12 09:09:19;;;;;;;2.78;1.50;;;26.20;99.90;;;;;;5056003;28;20108;-68
2022/08/12 09:14:29;;;;;;;2.60;1.88;;;26.40;99.90;;;;;;5055966;28;20091;-67
2022/08/12 09:16:54;;;;;;;3.97;1.85;;;26.50;99.90;;;;;;5055923;28;20048;-68
2022/08/12 09:19:20;;;;;;;4.15;1.60;;;26.60;99.90;;;;;;5055734;28;20045;-69
2022/08/12 09:21:46;;;;;;;5.40;1.55;;;26.60;99.90;;;;;;5055731;28;20051;-67
2022/08/12 09:24:17;;;;;;;4.22;1.42;;;26.70;99.90;;;;;;5055234;28;20053;-70
2022/08/12 09:26:47;;;;;;;1.60;1.27;;;26.80;99.30;;;;;;5055544;28;20087;-68
2022/08/12 09:29:19;;;;;;;3.20;1.40;;;26.80;99.70;;;;;;5055628;28;20048;-68
2022/08/12 09:31:46;;;;;;;3.47;1.60;;;26.90;99.40;;;;;;5037535;28;20041;-69
2022/08/12 09:34:12;;;;;;;1.90;1.40;;;26.90;99.80;;;;;;5055352;28;20041;-69
2022/08/12 09:36:39;;;;;;;1.90;1.40;;;27.00;99.70;;;;;;5055037;28;20080;-65
2022/08/12 09:39:06;;;;;;;3.33;1.40;;;27.10;99.40;;;;;;5055585;28;20442;-67
2022/08/12 09:41:43;;;;;;;3.42;2.00;;;27.20;99.40;;;;;;5055239;28;20048;-68
2022/08/12 09:46:53;;;;;;;2.22;1.50;;;27.30;94.20;;;;;;5055376;28;20048;-70
2022/08/12 09:49:20;;;;;;;2.28;1.70;;;27.40;96.00;;;;;;5055366;28;20028;-67
2022/08/12 09:51:47;;;;;;;2.00;1.25;;;27.50;97.10;;;;;;5055013;28;20124;-68
2022/08/12 09:54:15;;;;;;;2.10;1.40;;;27.60;96.50;;;;;;5055275;28;20388;-67
2022/08/12 09:56:43;;;;;;;1.95;1.38;;;27.70;95.10;;;;;;5055157;28;20431;-69
2022/08/12 09:59:09;;;;;;;2.00;1.42;;;27.80;95.00;;;;;;5055208;28;20124;-68
2022/08/12 10:01:39;;;;;;;6.65;1.80;;;27.80;95.00;;;;;;5055216;28;20115;-67
2022/08/12 10:04:09;;;;;;;1.80;1.20;;;28.00;94.10;;;;;;5055090;28;20119;-67
2022/08/12 10:06:38;;;;;;;3.30;1.50;;;28.10;92.10;;;;;;5055059;28;20045;-68
2022/08/12 10:09:05;;;;;;;2.25;1.60;;;28.20;93.50;;;;;;5055019;28;20044;-69
2022/08/12 10:14:16;;;;;;;1.58;1.30;;;28.50;91.70;;;;;;5054879;28;20047;-69
2022/08/12 10:16:45;;;;;;;1.88;1.42;;;;;;;;;;5054879;28;20128;-69
2022/08/12 10:19:15;;;;;;;2.20;1.43;;;28.70;99.90;;;;;;5020458;28;20037;-70
2022/08/12 10:21:41;;;;;;;2.08;1.25;;;28.90;92.80;;;;;;5054510;28;20076;-68
2022/08/12 10:24:08;;;;;;;2.28;1.20;;;28.90;94.60;;;;;;5054396;28;20059;-68
2022/08/12 10:29:35;;;;;;;2.10;1.35;;;29.10;95.70;;;;;;5054604;28;20063;-68
2022/08/12 10:32:19;;;;;;;2.15;1.30;;;29.00;94.00;;;;;;5054584;28;20399;-69
2022/08/12 10:34:46;;;;;;;2.45;1.48;;;;;;;;;;5054462;28;20104;-70
2022/08/12 10:37:13;;;;;;;2.10;1.30;;;;;;;;;;5036302;28;20080;-69
2022/08/12 10:39:40;;;;;;;1.98;1.40;;;29.10;80.50;;;;;;5054037;28;20098;-69
2022/08/12 10:45:02;;;;;;;2.95;1.73;;;29.10;85.80;;;;;;5054019;28;20051;-68
2022/08/12 10:47:29;;;;;;;2.00;1.00;;;29.20;85.90;;;;;;5053975;28;20045;-70
2022/08/12 10:49:57;;;;;;;1.63;1.20;;;29.20;80.10;;;;;;5053303;28;20033;-68
2022/08/12 10:52:23;;;;;;;2.00;1.08;;;29.20;82.00;;;;;;5054160;28;20056;-68
2022/08/12 10:54:49;;;;;;;1.67;1.25;;;29.20;79.60;;;;;;5054069;28;20464;-68
2022/08/12 10:57:16;;;;;;;1.17;1.08;;;29.30;82.40;;;;;;5035923;28;20072;-68
2022/08/12 10:59:43;;;;;;;1.95;1.30;;;29.30;79.70;;;;;;5053925;28;20048;-68
2022/08/12 11:02:13;;;;;;;2.20;1.20;;;29.20;80.00;;;;;;5053815;28;20040;-69
2022/08/12 11:04:39;;;;;;;2.17;1.63;;;29.20;80.10;;;;;;5053800;28;20044;-69
2022/08/12 11:07:06;;;;;;;2.42;1.10;;;29.30;80.30;;;;;;5053529;28;20400;-70
2022/08/12 11:09:36;;;;;;;0.95;0.88;;;29.30;78.50;;;;;;5053670;28;20067;-68
2022/08/12 11:12:05;;;;;;;1.33;1.00;;;29.20;76.90;;;;;;5035433;28;20408;-68
2022/08/12 11:14:35;;;;;;;0.98;0.88;;;29.20;76.00;;;;;;5035826;28;20420;-67
2022/08/12 11:17:05;;;;;;;1.25;0.88;;;29.20;75.50;;;;;;5053187;28;20044;-69
2022/08/12 11:19:32;;;;;;;;;;;29.20;75.90;;;;;;5053682;28;20074;-69
2022/08/12 11:21:59;;;;;;;0.80;0.80;;;29.30;75.20;;;;;;5053530;28;20011;-69
2022/08/12 11:24:25;;;;;;;1.27;1.17;;;29.20;76.60;;;;;;5052949;28;20057;-68
2022/08/12 11:26:53;;;;;;;1.13;0.70;;;29.30;73.90;;;;;;5053269;28;20045;-67
2022/08/12 11:29:20;;;;;;;1.23;1.10;;;29.30;75.70;;;;;;5052938;28;20037;-68
2022/08/12 11:31:47;;;;;;;3.25;1.30;;;29.20;76.20;;;;;;5053327;28;20481;-70
2022/08/12 11:34:13;;;;;;;2.03;1.27;;;29.30;76.50;;;;;;5035150;28;20079;-69
2022/08/12 11:36:47;;;;;;;1.30;1.20;;;29.30;74.40;;;;;;5052949;28;20450;-70
2022/08/12 11:39:13;;;;;;;1.80;1.17;;;29.30;76.30;;;;;;5035415;28;20037;-69
2022/08/12 11:41:39;;;;;;;1.75;1.15;;;29.40;76.20;;;;;;5053110;28;20369;-68
2022/08/12 11:44:05;;;;;;;2.50;1.00;;;29.40;74.90;;;;;;5053256;28;20037;-70
2022/08/12 11:46:35;;;;;;;2.13;1.40;;;29.50;74.20;;;;;;5035128;28;20131;-69
2022/08/12 11:49:00;;;;;;;;;;;29.50;74.60;;;;;;5053409;28;20049;-69
2022/08/12 11:51:26;;;;;;;1.77;1.10;;;29.50;71.10;;;;;;5053072;28;20435;-70
2022/08/12 11:53:52;;;;;;;1.70;1.10;;;29.50;74.50;;;;;;5052922;28;20068;-69
2022/08/12 11:56:17;;;;;;;1.52;1.00;;;29.60;75.10;;;;;;5053001;28;20044;-69
2022/08/12 11:58:43;;;;;;;1.70;1.27;;;29.60;72.90;;;;;;5053095;28;20041;-69
2022/08/12 12:01:09;;;;;;;2.95;1.17;;;29.60;73.40;;;;;;5052447;28;20045;-69
2022/08/12 12:03:34;;;;;;;1.35;1.20;;;29.60;73.00;;;;;;5052625;28;20053;-70
2022/08/12 12:06:00;;;;;;;1.27;1.10;;;29.70;73.90;;;;;;5052899;28;20125;-70
2022/08/12 12:08:26;;;;;;;3.60;1.13;;;29.70;73.10;;;;;;5052977;28;20114;-68
2022/08/12 12:10:53;;;;;;;1.42;1.20;;;29.80;75.70;;;;;;5052945;28;20112;-70
2022/08/12 12:13:19;;;;;;;1.77;1.42;;;29.90;73.60;;;;;;5052891;28;20121;-69
2022/08/12 12:15:46;;;;;;;2.25;1.10;;;29.80;72.00;;;;;;5052842;28;20037;-68
2022/08/12 12:18:22;;;;;;;1.45;1.23;;;29.90;73.50;;;;;;5052819;28;20545;-68
2022/08/12 12:20:49;;;;;;;2.42;1.30;;;29.80;69.80;;;;;;5052503;28;20045;-70
2022/08/12 12:23:14;;;;;;;2.45;1.33;;;29.80;73.50;;;;;;5052490;28;20071;-69
2022/08/12 12:25:40;;;;;;;1.50;1.10;;;29.90;72.30;;;;;;5052446;28;20033;-70
2022/08/12 12:28:06;;;;;;;1.48;1.20;;;30.00;73.90;;;;;;5052491;28;20041;-70
2022/08/12 12:30:33;;;;;;;2.25;1.52;;;30.00;70.10;;;;;;5052732;28;20029;-70
2022/08/12 12:32:58;;;;;;;1.38;0.90;;;30.00;71.00;;;;;;5052757;28;20132;-69
2022/08/12 12:35:24;;;;;;;1.50;1.30;;;30.00;71.70;;;;;;5052476;28;20094;-69
2022/08/12 12:38:01;;;;;;;1.83;1.27;;;29.90;72.90;;;;;;5052618;28;20044;-70
2022/08/12 12:40:28;;;;;;;2.38;1.42;;;30.00;72.00;;;;;;5034855;28;20041;-69
2022/08/12 12:42:55;;;;;;;2.00;1.38;;;30.00;73.20;;;;;;5052690;28;20041;-69
2022/08/12 12:45:21;;;;;;;1.35;1.25;;;30.00;70.20;;;;;;5034681;28;20099;-69
2022/08/12 12:47:57;;;;;;;2.08;1.30;;;30.10;71.30;;;;;;5052246;28;20040;-68
2022/08/12 12:50:29;;;;;;;1.50;1.25;;;30.20;70.40;;;;;;5052493;28;20071;-68
2022/08/12 12:52:54;;;;;;;3.03;1.35;;;30.10;69.20;;;;;;5052319;28;20056;-68
2022/08/12 12:55:21;;;;;;;2.08;1.27;;;30.20;72.10;;;;;;5034267;28;20068;-69
2022/08/12 12:57:47;;;;;;;1.85;1.20;;;30.20;71.30;;;;;;5052460;28;20477;-70
2022/08/12 13:00:16;;;;;;;1.73;1.30;;;30.20;70.80;;;;;;5052273;28;20033;-68
2022/08/12 13:02:54;;;;;;;1.85;1.30;;;30.10;71.60;;;;;;5034493;28;20049;-68
2022/08/12 13:05:25;;;;;;;2.20;1.30;;;30.20;71.30;;;;;;5051968;28;20091;-68
2022/08/12 13:07:55;;;;;;;1.77;1.30;;;30.10;70.70;;;;;;5051842;28;20075;-68
2022/08/12 13:10:22;;;;;;;1.83;1.20;;;30.10;71.40;;;;;;5051893;28;20033;-68
2022/08/12 13:12:49;;;;;;;1.73;1.42;;;30.20;71.40;;;;;;5054399;28;20045;-68
2022/08/12 13:15:15;;;;;;;1.80;1.42;;;30.30;69.00;;;;;;5055483;28;20029;-70
2022/08/12 13:17:46;;;;;;;1.42;1.27;;;30.20;69.30;;;;;;5055705;28;20123;-70
2022/08/12 13:20:13;;;;;;;1.63;1.38;;;30.30;69.00;;;;;;5055360;28;20045;-70
2022/08/12 13:22:39;;;;;;;1.73;1.30;;;30.30;70.10;;;;;;5055387;28;20065;-70
2022/08/12 13:25:05;;;;;;;2.42;1.77;;;30.50;69.50;;;;;;5037717;28;20936;-69
2022/08/12 13:27:40;;;;;;;4.65;1.60;;;29.50;68.40;;;;;;5055340;28;20099;-70
2022/08/12 13:30:08;;;;;;;2.05;1.20;;;30.50;69.50;;;;;;5055627;28;20458;-69
2022/08/12 13:32:36;;;;;;;3.00;1.50;;;30.50;68.60;;;;;;5055205;28;20040;-68
2022/08/12 13:35:03;;;;;;;2.17;1.50;;;30.50;68.70;;;;;;5055193;28;20040;-70
2022/08/12 13:37:28;;;;;;;1.77;1.30;;;30.60;68.50;;;;;;5055354;28;20037;-69
2022/08/12 13:39:54;;;;;;;1.95;1.25;;;30.50;70.10;;;;;;5055320;28;20345;-69
2022/08/12 13:42:21;;;;;;;2.20;1.27;;;30.60;70.60;;;;;;5055265;28;20040;-69
2022/08/12 13:44:52;;;;;;;2.80;1.48;;;30.60;71.60;;;;;;5055215;28;20500;-70
2022/08/12 13:47:20;;;;;;;2.40;1.40;;;30.60;70.20;;;;;;5054962;28;20134;-70
2022/08/12 13:49:48;;;;;;;2.22;1.40;;;30.70;69.80;;;;;;5055239;28;20072;-72
2022/08/12 13:52:17;;;;;;;3.08;1.58;;;30.70;70.60;;;;;;5055216;28;20033;-69
2022/08/12 13:54:45;;;;;;;1.63;1.13;;;30.80;70.00;;;;;;5037040;28;20041;-69
2022/08/12 13:57:13;;;;;;;2.08;1.48;;;30.70;70.00;;;;;;5054807;28;20124;-69
2022/08/12 13:59:41;;;;;;;1.67;1.38;;;30.70;69.50;;;;;;5020290;28;20130;-67
2022/08/12 14:02:10;;;;;;;2.80;1.60;;;30.90;67.50;;;;;;5054643;28;20045;-68
2022/08/12 14:04:38;;;;;;;;;;;31.10;81.90;;;;;;5055292;28;20071;-68
2022/08/12 14:07:04;;;;;;;2.42;1.33;;;31.30;78.00;;;;;;5054760;28;19920;-66
2022/08/12 14:10:34;;;;;;;1.92;1.27;;;31.20;77.40;;;;;;5054650;28;20073;-67
2022/08/12 14:12:16;;;;;;;2.60;1.33;;;31.30;79.10;;;;;;5054428;28;20049;-67
2022/08/12 14:14:48;;;;;;;2.00;1.40;;;31.20;79.20;;;;;;5036916;28;20496;-67
2022/08/12 14:17:13;;;;;;;1.45;1.13;;;31.20;79.80;;;;;;5054495;28;20041;-66
2022/08/12 14:20:12;;;;;;;3.05;1.25;;;31.20;79.20;;;;;;5054691;28;20041;-67
2022/08/12 14:22:25;;;;;;;2.40;1.85;;;31.20;80.00;;;;;;5054037;28;20080;-66
2022/08/12 14:24:51;;;;;;;1.63;1.42;;;31.20;76.60;;;;;;5036981;28;20123;-67
2022/08/12 14:27:17;;;;;;;2.00;1.25;;;31.10;79.70;;;;;;5054223;28;20651;-66
2022/08/12 14:29:45;;;;;;;2.03;1.45;;;31.20;78.50;;;;;;5036256;28;20040;-66
2022/08/12 14:32:11;;;;;;;1.38;1.20;;;31.00;78.10;;;;;;5054441;28;20037;-68
2022/08/12 14:34:37;;;;;;;1.80;1.40;;;31.10;79.80;;;;;;5020031;28;20643;-66
2022/08/12 14:37:05;;;;;;;1.35;1.20;;;31.10;79.10;;;;;;5054278;28;20045;-66
2022/08/12 14:39:31;;;;;;;4.28;1.80;;;31.10;79.30;;;;;;5054095;28;20408;-67
2022/08/12 14:41:57;;;;;;;1.73;1.25;;;31.10;79.00;;;;;;5053895;28;20045;-66
2022/08/12 14:44:23;;;;;;;1.67;1.42;;;31.10;79.10;;;;;;5054248;28;20043;-67